sensor_id;sensor_type;location;lat;lon;timestamp;P1;durP1;ratioP1;P2;durP2;ratioP2
63664;SDS011;49820;33.966;73.390;2023-07-13T01:49:05;14.52;;;9.77;;
63664;SDS011;49820;33.966;73.390;2023-07-13T01:51:34;16.20;;;10.10;;
63664;SDS011;49820;33.966;73.390;2023-07-13T01:54:04;16.23;;;9.73;;
63664;SDS011;49820;33.966;73.390;2023-07-13T01:56:33;16.03;;;9.17;;
63664;SDS011;49820;33.966;73.390;2023-07-13T01:59:02;13.70;;;9.25;;
63664;SDS011;49820;33.966;73.390;2023-07-13T02:01:31;14.17;;;9.13;;
63664;SDS011;49820;33.966;73.390;2023-07-13T02:04:00;15.02;;;9.63;;
63664;SDS011;49820;33.966;73.390;2023-07-13T02:06:32;16.27;;;9.55;;
63664;SDS011;49820;33.966;73.390;2023-07-13T02:41:22;11.68;;;9.15;;
63664;SDS011;49820;33.966;73.390;2023-07-13T02:43:52;15.02;;;9.30;;
63664;SDS011;49820;33.966;73.390;2023-07-13T02:46:22;17.38;;;10.55;;
63664;SDS011;49820;33.966;73.390;2023-07-13T02:48:52;16.30;;;10.20;;
63664;SDS011;49820;33.966;73.390;2023-07-13T02:51:22;14.05;;;9.40;;
63664;SDS011;49820;33.966;73.390;2023-07-13T02:53:50;15.50;;;9.30;;
63664;SDS011;49820;33.966;73.390;2023-07-13T02:56:22;15.10;;;8.45;;
63664;SDS011;49820;33.966;73.390;2023-07-13T02:58:53;11.43;;;8.02;;
63664;SDS011;49820;33.966;73.390;2023-07-13T03:01:22;13.20;;;7.93;;
63664;SDS011;49820;33.966;73.390;2023-07-13T03:03:52;14.65;;;8.38;;
63664;SDS011;49820;33.966;73.390;2023-07-13T03:06:21;15.23;;;9.30;;
63664;SDS011;49820;33.966;73.390;2023-07-13T03:08:53;13.90;;;9.32;;
63664;SDS011;49820;33.966;73.390;2023-07-13T03:11:22;12.02;;;8.23;;
63664;SDS011;49820;33.966;73.390;2023-07-13T03:14:10;14.55;;;8.50;;
63664;SDS011;49820;33.966;73.390;2023-07-13T03:16:39;11.70;;;7.50;;
63664;SDS011;49820;33.966;73.390;2023-07-13T03:19:09;13.20;;;8.25;;
63664;SDS011;49820;33.966;73.390;2023-07-13T03:21:38;11.03;;;7.73;;
63664;SDS011;49820;33.966;73.390;2023-07-13T03:24:08;12.07;;;8.10;;
63664;SDS011;49820;33.966;73.390;2023-07-13T03:26:37;13.45;;;8.20;;
63664;SDS011;49820;33.966;73.390;2023-07-13T03:29:07;10.40;;;8.00;;
63664;SDS011;49820;33.966;73.390;2023-07-13T03:31:36;11.48;;;6.85;;
63664;SDS011;49820;33.966;73.390;2023-07-13T03:34:09;11.15;;;7.45;;
63664;SDS011;49820;33.966;73.390;2023-07-13T03:36:44;11.48;;;7.82;;
63664;SDS011;49820;33.966;73.390;2023-07-13T03:39:13;12.85;;;7.38;;
63664;SDS011;49820;33.966;73.390;2023-07-13T03:41:46;11.23;;;8.57;;
63664;SDS011;49820;33.966;73.390;2023-07-13T03:44:16;10.93;;;7.78;;
63664;SDS011;49820;33.966;73.390;2023-07-13T03:46:49;12.63;;;8.35;;
63664;SDS011;49820;33.966;73.390;2023-07-13T03:49:18;11.05;;;7.90;;
63664;SDS011;49820;33.966;73.390;2023-07-13T03:51:47;14.57;;;8.17;;
63664;SDS011;49820;33.966;73.390;2023-07-13T03:54:20;9.82;;;7.47;;
63664;SDS011;49820;33.966;73.390;2023-07-13T03:56:49;12.38;;;7.82;;
63664;SDS011;49820;33.966;73.390;2023-07-13T03:59:20;11.18;;;7.72;;
63664;SDS011;49820;33.966;73.390;2023-07-13T04:01:50;12.97;;;8.33;;
63664;SDS011;49820;33.966;73.390;2023-07-13T04:04:19;11.90;;;7.88;;
63664;SDS011;49820;33.966;73.390;2023-07-13T04:06:49;12.48;;;7.25;;
63664;SDS011;49820;33.966;73.390;2023-07-13T04:09:21;11.57;;;8.63;;
63664;SDS011;49820;33.966;73.390;2023-07-13T04:11:51;12.07;;;8.30;;
63664;SDS011;49820;33.966;73.390;2023-07-13T04:14:19;12.30;;;8.20;;
63664;SDS011;49820;33.966;73.390;2023-07-13T04:16:48;12.18;;;8.57;;
63664;SDS011;49820;33.966;73.390;2023-07-13T04:19:18;12.20;;;8.18;;
63664;SDS011;49820;33.966;73.390;2023-07-13T04:21:46;12.02;;;8.48;;
63664;SDS011;49820;33.966;73.390;2023-07-13T04:24:16;14.30;;;8.13;;
63664;SDS011;49820;33.966;73.390;2023-07-13T04:26:45;15.02;;;8.70;;
63664;SDS011;49820;33.966;73.390;2023-07-13T04:29:14;15.10;;;8.40;;
63664;SDS011;49820;33.966;73.390;2023-07-13T04:31:43;10.68;;;8.00;;
63664;SDS011;49820;33.966;73.390;2023-07-13T04:34:12;14.82;;;8.65;;
63664;SDS011;49820;33.966;73.390;2023-07-13T04:36:41;13.15;;;8.38;;
63664;SDS011;49820;33.966;73.390;2023-07-13T04:39:11;12.17;;;8.67;;
63664;SDS011;49820;33.966;73.390;2023-07-13T04:41:39;13.88;;;8.98;;
63664;SDS011;49820;33.966;73.390;2023-07-13T04:44:08;14.32;;;9.30;;
63664;SDS011;49820;33.966;73.390;2023-07-13T04:46:39;14.87;;;9.00;;
63664;SDS011;49820;33.966;73.390;2023-07-13T04:49:08;17.37;;;8.60;;
63664;SDS011;49820;33.966;73.390;2023-07-13T04:51:37;10.93;;;7.90;;
63664;SDS011;49820;33.966;73.390;2023-07-13T04:54:06;13.30;;;8.35;;
63664;SDS011;49820;33.966;73.390;2023-07-13T04:56:36;10.75;;;8.02;;
63664;SDS011;49820;33.966;73.390;2023-07-13T04:59:05;13.07;;;9.48;;
63664;SDS011;49820;33.966;73.390;2023-07-13T05:01:34;10.77;;;7.28;;
63664;SDS011;49820;33.966;73.390;2023-07-13T05:04:06;13.20;;;9.43;;
63664;SDS011;49820;33.966;73.390;2023-07-13T05:06:35;14.07;;;11.25;;
63664;SDS011;49820;33.966;73.390;2023-07-13T05:09:04;13.10;;;7.03;;
63664;SDS011;49820;33.966;73.390;2023-07-13T05:11:33;12.07;;;8.13;;
63664;SDS011;49820;33.966;73.390;2023-07-13T05:14:02;11.70;;;9.43;;
63664;SDS011;49820;33.966;73.390;2023-07-13T05:16:31;13.30;;;8.13;;
63664;SDS011;49820;33.966;73.390;2023-07-13T05:19:00;14.10;;;9.15;;
63664;SDS011;49820;33.966;73.390;2023-07-13T05:21:30;11.77;;;9.73;;
63664;SDS011;49820;33.966;73.390;2023-07-13T05:24:00;12.68;;;8.00;;
63664;SDS011;49820;33.966;73.390;2023-07-13T05:26:49;10.93;;;8.00;;
63664;SDS011;49820;33.966;73.390;2023-07-13T05:29:19;11.65;;;7.55;;
63664;SDS011;49820;33.966;73.390;2023-07-13T05:31:49;10.82;;;7.47;;
63664;SDS011;49820;33.966;73.390;2023-07-13T05:34:18;14.13;;;8.13;;
63664;SDS011;49820;33.966;73.390;2023-07-13T05:36:47;11.45;;;9.50;;
63664;SDS011;49820;33.966;73.390;2023-07-13T05:39:17;10.45;;;6.90;;
63664;SDS011;49820;33.966;73.390;2023-07-13T05:41:47;14.82;;;13.00;;
63664;SDS011;49820;33.966;73.390;2023-07-13T05:44:16;11.05;;;9.40;;
63664;SDS011;49820;33.966;73.390;2023-07-13T05:46:45;10.48;;;7.70;;
63664;SDS011;49820;33.966;73.390;2023-07-13T05:49:14;22.90;;;15.27;;
63664;SDS011;49820;33.966;73.390;2023-07-13T05:51:44;9.65;;;7.68;;
63664;SDS011;49820;33.966;73.390;2023-07-13T05:54:14;12.65;;;7.85;;
63664;SDS011;49820;33.966;73.390;2023-07-13T05:56:43;12.13;;;7.67;;
63664;SDS011;49820;33.966;73.390;2023-07-13T05:59:15;11.70;;;7.93;;
63664;SDS011;49820;33.966;73.390;2023-07-13T06:01:45;14.77;;;10.20;;
63664;SDS011;49820;33.966;73.390;2023-07-13T06:04:15;14.25;;;7.90;;
63664;SDS011;49820;33.966;73.390;2023-07-13T06:06:44;9.83;;;7.90;;
63664;SDS011;49820;33.966;73.390;2023-07-13T06:09:12;12.70;;;7.85;;
63664;SDS011;49820;33.966;73.390;2023-07-13T06:11:42;13.32;;;8.48;;
63664;SDS011;49820;33.966;73.390;2023-07-13T06:14:12;12.70;;;8.95;;
63664;SDS011;49820;33.966;73.390;2023-07-13T06:16:42;18.48;;;10.82;;
63664;SDS011;49820;33.966;73.390;2023-07-13T06:19:11;11.52;;;8.15;;
63664;SDS011;49820;33.966;73.390;2023-07-13T06:21:41;13.30;;;6.63;;
63664;SDS011;49820;33.966;73.390;2023-07-13T06:24:12;13.35;;;8.48;;
63664;SDS011;49820;33.966;73.390;2023-07-13T06:26:41;9.13;;;7.10;;
63664;SDS011;49820;33.966;73.390;2023-07-13T06:29:10;10.90;;;6.90;;
63664;SDS011;49820;33.966;73.390;2023-07-13T06:31:39;24.27;;;13.77;;
63664;SDS011;49820;33.966;73.390;2023-07-13T06:34:09;12.13;;;7.05;;
63664;SDS011;49820;33.966;73.390;2023-07-13T06:36:41;9.77;;;6.95;;
63664;SDS011;49820;33.966;73.390;2023-07-13T06:39:10;11.35;;;8.00;;
63664;SDS011;49820;33.966;73.390;2023-07-13T06:41:39;8.52;;;6.40;;
63664;SDS011;49820;33.966;73.390;2023-07-13T06:44:12;11.23;;;8.30;;
63664;SDS011;49820;33.966;73.390;2023-07-13T06:46:41;12.95;;;7.45;;
63664;SDS011;49820;33.966;73.390;2023-07-13T06:49:10;11.17;;;7.83;;
63664;SDS011;49820;33.966;73.390;2023-07-13T06:51:39;8.80;;;6.80;;
63664;SDS011;49820;33.966;73.390;2023-07-13T06:54:08;10.25;;;6.80;;
63664;SDS011;49820;33.966;73.390;2023-07-13T06:56:37;9.55;;;6.72;;
63664;SDS011;49820;33.966;73.390;2023-07-13T06:59:06;9.40;;;6.72;;
63664;SDS011;49820;33.966;73.390;2023-07-13T07:01:35;11.90;;;7.72;;
63664;SDS011;49820;33.966;73.390;2023-07-13T07:04:07;8.85;;;7.00;;
63664;SDS011;49820;33.966;73.390;2023-07-13T07:06:36;9.52;;;7.38;;
63664;SDS011;49820;33.966;73.390;2023-07-13T07:09:06;26.60;;;12.13;;
63664;SDS011;49820;33.966;73.390;2023-07-13T07:11:36;12.15;;;7.95;;
63664;SDS011;49820;33.966;73.390;2023-07-13T07:14:27;9.55;;;7.47;;
63664;SDS011;49820;33.966;73.390;2023-07-13T07:16:56;9.55;;;7.68;;
63664;SDS011;49820;33.966;73.390;2023-07-13T07:19:29;15.07;;;8.83;;
63664;SDS011;49820;33.966;73.390;2023-07-13T07:21:58;11.48;;;8.32;;
63664;SDS011;49820;33.966;73.390;2023-07-13T07:24:27;10.65;;;7.15;;
63664;SDS011;49820;33.966;73.390;2023-07-13T07:26:57;11.48;;;7.65;;
63664;SDS011;49820;33.966;73.390;2023-07-13T07:29:28;10.77;;;7.28;;
63664;SDS011;49820;33.966;73.390;2023-07-13T07:32:00;10.20;;;7.30;;
63664;SDS011;49820;33.966;73.390;2023-07-13T07:34:44;13.35;;;8.40;;
63664;SDS011;49820;33.966;73.390;2023-07-13T07:37:14;11.27;;;8.40;;
63664;SDS011;49820;33.966;73.390;2023-07-13T07:39:46;11.18;;;8.30;;
63664;SDS011;49820;33.966;73.390;2023-07-13T07:42:35;12.13;;;8.05;;
63664;SDS011;49820;33.966;73.390;2023-07-13T07:45:04;16.02;;;9.70;;
63664;SDS011;49820;33.966;73.390;2023-07-13T07:47:34;11.90;;;8.10;;
63664;SDS011;49820;33.966;73.390;2023-07-13T07:50:05;11.18;;;7.63;;
63664;SDS011;49820;33.966;73.390;2023-07-13T07:52:34;13.40;;;7.93;;
63664;SDS011;49820;33.966;73.390;2023-07-13T07:55:04;10.73;;;7.70;;
63664;SDS011;49820;33.966;73.390;2023-07-13T07:57:37;10.00;;;8.10;;
63664;SDS011;49820;33.966;73.390;2023-07-13T08:00:09;10.02;;;7.85;;
63664;SDS011;49820;33.966;73.390;2023-07-13T08:02:43;9.70;;;7.57;;
63664;SDS011;49820;33.966;73.390;2023-07-13T08:05:15;12.30;;;7.53;;
63664;SDS011;49820;33.966;73.390;2023-07-13T08:07:47;12.30;;;8.48;;
63664;SDS011;49820;33.966;73.390;2023-07-13T08:10:16;9.07;;;7.47;;
63664;SDS011;49820;33.966;73.390;2023-07-13T08:12:46;10.95;;;7.85;;
63664;SDS011;49820;33.966;73.390;2023-07-13T08:15:17;8.65;;;7.28;;
63664;SDS011;49820;33.966;73.390;2023-07-13T08:17:48;8.30;;;7.03;;
63664;SDS011;49820;33.966;73.390;2023-07-13T08:20:17;11.25;;;8.40;;
63664;SDS011;49820;33.966;73.390;2023-07-13T08:22:46;9.80;;;7.55;;
63664;SDS011;49820;33.966;73.390;2023-07-13T08:25:15;11.00;;;7.60;;
63664;SDS011;49820;33.966;73.390;2023-07-13T08:27:44;11.35;;;8.55;;
63664;SDS011;49820;33.966;73.390;2023-07-13T08:30:13;9.00;;;7.83;;
63664;SDS011;49820;33.966;73.390;2023-07-13T08:32:42;8.65;;;7.50;;
63664;SDS011;49820;33.966;73.390;2023-07-13T08:35:12;11.50;;;8.05;;
63664;SDS011;49820;33.966;73.390;2023-07-13T08:37:48;10.43;;;8.02;;
63664;SDS011;49820;33.966;73.390;2023-07-13T08:40:17;10.00;;;7.80;;
63664;SDS011;49820;33.966;73.390;2023-07-13T08:42:58;9.10;;;7.50;;
63664;SDS011;49820;33.966;73.390;2023-07-13T08:48:30;10.20;;;7.85;;
63664;SDS011;49820;33.966;73.390;2023-07-13T08:51:11;11.63;;;8.75;;
63664;SDS011;49820;33.966;73.390;2023-07-13T08:54:04;10.20;;;8.30;;
63664;SDS011;49820;33.966;73.390;2023-07-13T08:56:39;12.02;;;9.02;;
63664;SDS011;49820;33.966;73.390;2023-07-13T08:59:16;12.73;;;8.90;;
63664;SDS011;49820;33.966;73.390;2023-07-13T09:01:53;13.65;;;9.10;;
63664;SDS011;49820;33.966;73.390;2023-07-13T09:04:37;11.07;;;9.02;;
63664;SDS011;49820;33.966;73.390;2023-07-13T09:10:33;13.95;;;9.93;;
63664;SDS011;49820;33.966;73.390;2023-07-13T09:13:37;10.00;;;8.75;;
63664;SDS011;49820;33.966;73.390;2023-07-13T09:16:19;10.45;;;9.32;;
63664;SDS011;49820;33.966;73.390;2023-07-13T09:18:51;10.30;;;8.77;;
63664;SDS011;49820;33.966;73.390;2023-07-13T09:21:25;13.43;;;10.05;;
63664;SDS011;49820;33.966;73.390;2023-07-13T09:24:24;13.23;;;9.60;;
63664;SDS011;49820;33.966;73.390;2023-07-13T09:27:11;13.23;;;10.25;;
63664;SDS011;49820;33.966;73.390;2023-07-13T09:29:47;11.95;;;9.48;;
63664;SDS011;49820;33.966;73.390;2023-07-13T09:32:21;13.83;;;9.63;;
63664;SDS011;49820;33.966;73.390;2023-07-13T09:34:53;12.77;;;9.90;;
63664;SDS011;49820;33.966;73.390;2023-07-13T09:37:27;14.35;;;10.40;;
63664;SDS011;49820;33.966;73.390;2023-07-13T09:39:59;11.50;;;9.65;;
63664;SDS011;49820;33.966;73.390;2023-07-13T09:42:33;10.63;;;9.18;;
63664;SDS011;49820;33.966;73.390;2023-07-13T09:45:02;10.82;;;9.20;;
63664;SDS011;49820;33.966;73.390;2023-07-13T09:47:39;13.73;;;10.77;;
63664;SDS011;49820;33.966;73.390;2023-07-13T09:50:10;11.65;;;9.77;;
63664;SDS011;49820;33.966;73.390;2023-07-13T09:52:47;11.90;;;10.05;;
63664;SDS011;49820;33.966;73.390;2023-07-13T09:55:25;11.40;;;9.38;;
63664;SDS011;49820;33.966;73.390;2023-07-13T09:57:57;12.85;;;9.70;;
63664;SDS011;49820;33.966;73.390;2023-07-13T10:00:30;11.85;;;9.50;;
63664;SDS011;49820;33.966;73.390;2023-07-13T10:03:05;14.02;;;10.07;;
63664;SDS011;49820;33.966;73.390;2023-07-13T10:05:45;14.75;;;10.15;;
63664;SDS011;49820;33.966;73.390;2023-07-13T10:08:25;13.27;;;10.52;;
63664;SDS011;49820;33.966;73.390;2023-07-13T10:10:59;10.70;;;9.43;;
63664;SDS011;49820;33.966;73.390;2023-07-13T10:13:41;13.35;;;9.60;;
63664;SDS011;49820;33.966;73.390;2023-07-13T10:16:12;13.77;;;10.50;;
63664;SDS011;49820;33.966;73.390;2023-07-13T10:18:44;12.82;;;10.50;;
63664;SDS011;49820;33.966;73.390;2023-07-13T10:21:18;11.23;;;9.80;;
63664;SDS011;49820;33.966;73.390;2023-07-13T10:24:04;13.00;;;10.45;;
63664;SDS011;49820;33.966;73.390;2023-07-13T10:30:24;13.95;;;10.88;;
63664;SDS011;49820;33.966;73.390;2023-07-13T10:32:30;12.13;;;10.35;;
63664;SDS011;49820;33.966;73.390;2023-07-13T10:34:59;13.43;;;10.13;;
63664;SDS011;49820;33.966;73.390;2023-07-13T10:37:40;13.88;;;10.95;;
63664;SDS011;49820;33.966;73.390;2023-07-13T10:40:13;11.77;;;9.88;;
63664;SDS011;49820;33.966;73.390;2023-07-13T10:42:46;12.40;;;10.10;;
63664;SDS011;49820;33.966;73.390;2023-07-13T10:45:21;12.27;;;10.40;;
63664;SDS011;49820;33.966;73.390;2023-07-13T10:47:55;13.43;;;10.88;;
63664;SDS011;49820;33.966;73.390;2023-07-13T10:50:26;14.23;;;10.98;;
63664;SDS011;49820;33.966;73.390;2023-07-13T10:53:02;12.65;;;10.60;;
63664;SDS011;49820;33.966;73.390;2023-07-13T10:58:21;12.57;;;10.30;;
63664;SDS011;49820;33.966;73.390;2023-07-13T11:03:25;12.25;;;10.48;;
63664;SDS011;49820;33.966;73.390;2023-07-13T11:06:05;11.88;;;10.35;;
63664;SDS011;49820;33.966;73.390;2023-07-13T11:14:04;11.85;;;10.43;;
63664;SDS011;49820;33.966;73.390;2023-07-13T11:16:53;13.77;;;10.35;;
63664;SDS011;49820;33.966;73.390;2023-07-13T11:19:26;12.43;;;10.87;;
63664;SDS011;49820;33.966;73.390;2023-07-13T11:25:20;14.18;;;11.52;;
63664;SDS011;49820;33.966;73.390;2023-07-13T11:30:41;14.27;;;10.60;;
63664;SDS011;49820;33.966;73.390;2023-07-13T11:35:59;12.93;;;11.15;;
63664;SDS011;49820;33.966;73.390;2023-07-13T11:41:04;12.30;;;10.40;;
63664;SDS011;49820;33.966;73.390;2023-07-13T11:43:44;12.90;;;11.13;;
63664;SDS011;49820;33.966;73.390;2023-07-13T11:46:21;11.57;;;9.80;;
63664;SDS011;49820;33.966;73.390;2023-07-13T11:48:55;11.82;;;9.68;;
63664;SDS011;49820;33.966;73.390;2023-07-13T11:51:31;15.35;;;11.40;;
63664;SDS011;49820;33.966;73.390;2023-07-13T11:54:06;13.43;;;11.10;;
63664;SDS011;49820;33.966;73.390;2023-07-13T11:56:45;15.43;;;11.32;;
63664;SDS011;49820;33.966;73.390;2023-07-13T11:59:14;13.50;;;11.75;;
63664;SDS011;49820;33.966;73.390;2023-07-13T12:01:46;14.07;;;12.02;;
63664;SDS011;49820;33.966;73.390;2023-07-13T12:04:28;14.13;;;11.68;;
63664;SDS011;49820;33.966;73.390;2023-07-13T12:07:04;13.02;;;11.63;;
63664;SDS011;49820;33.966;73.390;2023-07-13T12:09:43;14.63;;;11.27;;
63664;SDS011;49820;33.966;73.390;2023-07-13T12:12:13;13.93;;;11.55;;
63664;SDS011;49820;33.966;73.390;2023-07-13T12:14:45;16.13;;;11.80;;
63664;SDS011;49820;33.966;73.390;2023-07-13T12:17:21;16.63;;;12.77;;
63664;SDS011;49820;33.966;73.390;2023-07-13T12:19:52;16.88;;;12.23;;
63664;SDS011;49820;33.966;73.390;2023-07-13T12:22:21;17.20;;;13.18;;
63664;SDS011;49820;33.966;73.390;2023-07-13T12:24:51;15.67;;;12.43;;
63664;SDS011;49820;33.966;73.390;2023-07-13T12:27:23;17.55;;;12.68;;
63664;SDS011;49820;33.966;73.390;2023-07-13T12:32:29;15.23;;;12.90;;
63664;SDS011;49820;33.966;73.390;2023-07-13T12:35:15;15.73;;;13.57;;
63664;SDS011;49820;33.966;73.390;2023-07-13T12:37:50;18.30;;;13.23;;
63664;SDS011;49820;33.966;73.390;2023-07-13T12:40:21;16.92;;;13.38;;
63664;SDS011;49820;33.966;73.390;2023-07-13T12:42:56;14.97;;;13.00;;
63664;SDS011;49820;33.966;73.390;2023-07-13T12:45:26;16.25;;;13.50;;
63664;SDS011;49820;33.966;73.390;2023-07-13T12:47:57;21.67;;;14.02;;
63664;SDS011;49820;33.966;73.390;2023-07-13T12:50:36;19.52;;;14.32;;
63664;SDS011;49820;33.966;73.390;2023-07-13T12:53:12;18.40;;;14.55;;
63664;SDS011;49820;33.966;73.390;2023-07-13T12:55:44;17.77;;;14.88;;
63664;SDS011;49820;33.966;73.390;2023-07-13T12:58:29;18.10;;;14.10;;
63664;SDS011;49820;33.966;73.390;2023-07-13T13:01:23;22.38;;;19.40;;
63664;SDS011;49820;33.966;73.390;2023-07-13T13:03:57;22.07;;;18.10;;
63664;SDS011;49820;33.966;73.390;2023-07-13T13:06:42;21.55;;;16.88;;
63664;SDS011;49820;33.966;73.390;2023-07-13T13:09:12;23.10;;;18.60;;
63664;SDS011;49820;33.966;73.390;2023-07-13T13:11:43;23.52;;;19.65;;
63664;SDS011;49820;33.966;73.390;2023-07-13T13:14:15;22.83;;;19.95;;
63664;SDS011;49820;33.966;73.390;2023-07-13T13:16:48;23.98;;;21.42;;
63664;SDS011;49820;33.966;73.390;2023-07-13T13:19:20;25.63;;;21.40;;
63664;SDS011;49820;33.966;73.390;2023-07-13T13:21:54;27.08;;;23.92;;
63664;SDS011;49820;33.966;73.390;2023-07-13T13:24:26;26.88;;;23.70;;
63664;SDS011;49820;33.966;73.390;2023-07-13T13:26:57;26.58;;;23.13;;
63664;SDS011;49820;33.966;73.390;2023-07-13T13:29:25;33.50;;;30.05;;
63664;SDS011;49820;33.966;73.390;2023-07-13T13:31:55;54.28;;;48.50;;
63664;SDS011;49820;33.966;73.390;2023-07-13T13:34:24;125.03;;;111.43;;
63664;SDS011;49820;33.966;73.390;2023-07-13T13:36:54;45.20;;;39.40;;
63664;SDS011;49820;33.966;73.390;2023-07-13T13:39:33;76.18;;;66.78;;
63664;SDS011;49820;33.966;73.390;2023-07-13T13:42:04;35.40;;;26.50;;
63664;SDS011;49820;33.966;73.390;2023-07-13T13:44:33;35.03;;;28.63;;
63664;SDS011;49820;33.966;73.390;2023-07-13T13:47:02;36.13;;;29.08;;
63664;SDS011;49820;33.966;73.390;2023-07-13T13:49:32;35.20;;;29.88;;
63664;SDS011;49820;33.966;73.390;2023-07-13T13:52:01;33.10;;;29.55;;
63664;SDS011;49820;33.966;73.390;2023-07-13T13:54:29;21.67;;;18.27;;
63664;SDS011;49820;33.966;73.390;2023-07-13T13:56:58;27.80;;;24.58;;
63664;SDS011;49820;33.966;73.390;2023-07-13T13:59:27;25.63;;;20.13;;
63664;SDS011;49820;33.966;73.390;2023-07-13T14:01:56;27.58;;;23.13;;
63664;SDS011;49820;33.966;73.390;2023-07-13T14:04:27;25.88;;;22.50;;
63664;SDS011;49820;33.966;73.390;2023-07-13T14:06:57;23.88;;;20.35;;
63664;SDS011;49820;33.966;73.390;2023-07-13T14:09:27;24.38;;;19.55;;
63664;SDS011;49820;33.966;73.390;2023-07-13T14:11:57;21.70;;;17.10;;
63664;SDS011;49820;33.966;73.390;2023-07-13T14:14:35;28.45;;;18.77;;
63664;SDS011;49820;33.966;73.390;2023-07-13T14:17:08;25.10;;;18.75;;
63664;SDS011;49820;33.966;73.390;2023-07-13T14:19:50;24.15;;;18.10;;
